sensor_id;sensor_type;location;lat;lon;timestamp;temperature;humidity
24146;DHT22;12308;50.948;4.706;2023-03-21T00:02:09;12.30;99.90
24146;DHT22;12308;50.948;4.706;2023-03-21T00:04:35;12.30;99.90
24146;DHT22;12308;50.948;4.706;2023-03-21T00:07:00;12.20;99.90
24146;DHT22;12308;50.948;4.706;2023-03-21T00:09:26;12.20;99.90
24146;DHT22;12308;50.948;4.706;2023-03-21T00:11:52;12.20;99.90
24146;DHT22;12308;50.948;4.706;2023-03-21T00:14:17;12.10;99.90
24146;DHT22;12308;50.948;4.706;2023-03-21T00:16:45;12.10;99.90
24146;DHT22;12308;50.948;4.706;2023-03-21T00:19:15;12.20;99.90
24146;DHT22;12308;50.948;4.706;2023-03-21T00:21:42;12.10;99.90
24146;DHT22;12308;50.948;4.706;2023-03-21T00:24:10;12.00;99.90
24146;DHT22;12308;50.948;4.706;2023-03-21T00:26:36;12.00;99.90
24146;DHT22;12308;50.948;4.706;2023-03-21T00:29:02;11.90;99.90
24146;DHT22;12308;50.948;4.706;2023-03-21T00:31:28;11.90;99.90
24146;DHT22;12308;50.948;4.706;2023-03-21T00:33:54;12.00;99.90
24146;DHT22;12308;50.948;4.706;2023-03-21T00:36:19;11.90;99.90
24146;DHT22;12308;50.948;4.706;2023-03-21T00:38:46;11.90;99.90
24146;DHT22;12308;50.948;4.706;2023-03-21T00:41:12;12.00;99.90
24146;DHT22;12308;50.948;4.706;2023-03-21T00:43:40;12.00;99.90
24146;DHT22;12308;50.948;4.706;2023-03-21T00:46:07;12.00;99.90
24146;DHT22;12308;50.948;4.706;2023-03-21T00:48:32;11.90;99.90
24146;DHT22;12308;50.948;4.706;2023-03-21T00:50:58;11.90;99.90
24146;DHT22;12308;50.948;4.706;2023-03-21T00:53:25;11.90;99.90
24146;DHT22;12308;50.948;4.706;2023-03-21T00:55:51;11.90;99.90
24146;DHT22;12308;50.948;4.706;2023-03-21T00:58:17;11.90;99.90
24146;DHT22;12308;50.948;4.706;2023-03-21T01:00:43;11.90;99.90
24146;DHT22;12308;50.948;4.706;2023-03-21T01:03:12;12.00;99.90
24146;DHT22;12308;50.948;4.706;2023-03-21T01:05:43;12.00;99.90
24146;DHT22;12308;50.948;4.706;2023-03-21T01:08:33;11.80;99.90
24146;DHT22;12308;50.948;4.706;2023-03-21T01:11:03;11.90;99.90
24146;DHT22;12308;50.948;4.706;2023-03-21T01:13:28;12.00;99.90
24146;DHT22;12308;50.948;4.706;2023-03-21T01:15:55;11.80;99.90
24146;DHT22;12308;50.948;4.706;2023-03-21T01:18:23;11.80;99.90
24146;DHT22;12308;50.948;4.706;2023-03-21T01:20:51;11.80;99.90
24146;DHT22;12308;50.948;4.706;2023-03-21T01:23:17;11.80;99.90
24146;DHT22;12308;50.948;4.706;2023-03-21T01:25:43;11.90;99.90
24146;DHT22;12308;50.948;4.706;2023-03-21T01:28:09;12.10;99.90
24146;DHT22;12308;50.948;4.706;2023-03-21T01:30:35;12.00;99.90
24146;DHT22;12308;50.948;4.706;2023-03-21T01:33:01;12.10;99.90
24146;DHT22;12308;50.948;4.706;2023-03-21T01:35:26;12.10;99.90
24146;DHT22;12308;50.948;4.706;2023-03-21T01:37:52;12.00;99.90
24146;DHT22;12308;50.948;4.706;2023-03-21T01:40:23;12.00;99.90
24146;DHT22;12308;50.948;4.706;2023-03-21T01:42:49;12.10;99.90
24146;DHT22;12308;50.948;4.706;2023-03-21T01:48:19;12.10;99.90
24146;DHT22;12308;50.948;4.706;2023-03-21T01:50:46;12.20;99.90
24146;DHT22;12308;50.948;4.706;2023-03-21T01:53:12;12.20;99.90
24146;DHT22;12308;50.948;4.706;2023-03-21T01:55:39;12.20;99.90
24146;DHT22;12308;50.948;4.706;2023-03-21T01:58:06;12.20;99.90
24146;DHT22;12308;50.948;4.706;2023-03-21T02:00:33;12.10;99.90
24146;DHT22;12308;50.948;4.706;2023-03-21T02:03:00;12.00;99.90
24146;DHT22;12308;50.948;4.706;2023-03-21T02:08:16;12.20;99.90
24146;DHT22;12308;50.948;4.706;2023-03-21T02:10:43;12.00;99.90
24146;DHT22;12308;50.948;4.706;2023-03-21T02:13:10;12.00;99.90
24146;DHT22;12308;50.948;4.706;2023-03-21T02:16:11;12.00;99.90
24146;DHT22;12308;50.948;4.706;2023-03-21T02:18:53;12.00;99.90
24146;DHT22;12308;50.948;4.706;2023-03-21T02:21:47;12.00;99.90
24146;DHT22;12308;50.948;4.706;2023-03-21T02:33:10;12.10;99.90
24146;DHT22;12308;50.948;4.706;2023-03-21T02:36:07;12.00;99.90
24146;DHT22;12308;50.948;4.706;2023-03-21T02:38:54;12.10;99.90
24146;DHT22;12308;50.948;4.706;2023-03-21T02:45:02;12.20;99.90
24146;DHT22;12308;50.948;4.706;2023-03-21T02:47:06;12.20;99.90
24146;DHT22;12308;50.948;4.706;2023-03-21T02:49:42;12.10;99.90
24146;DHT22;12308;50.948;4.706;2023-03-21T02:52:14;12.10;99.90
24146;DHT22;12308;50.948;4.706;2023-03-21T02:54:42;12.20;99.90
24146;DHT22;12308;50.948;4.706;2023-03-21T02:57:08;12.20;99.90
24146;DHT22;12308;50.948;4.706;2023-03-21T02:59:35;12.20;99.90
24146;DHT22;12308;50.948;4.706;2023-03-21T03:02:02;12.30;99.90
24146;DHT22;12308;50.948;4.706;2023-03-21T03:04:29;12.30;99.90
24146;DHT22;12308;50.948;4.706;2023-03-21T03:07:10;12.40;99.90
24146;DHT22;12308;50.948;4.706;2023-03-21T03:21:16;12.10;99.90
24146;DHT22;12308;50.948;4.706;2023-03-21T03:26:36;12.10;99.90
24146;DHT22;12308;50.948;4.706;2023-03-21T03:29:04;12.00;99.90
24146;DHT22;12308;50.948;4.706;2023-03-21T03:31:37;12.10;99.90
24146;DHT22;12308;50.948;4.706;2023-03-21T03:34:11;12.20;99.90
24146;DHT22;12308;50.948;4.706;2023-03-21T03:36:46;12.20;99.90
24146;DHT22;12308;50.948;4.706;2023-03-21T03:39:16;12.10;99.90
24146;DHT22;12308;50.948;4.706;2023-03-21T03:41:58;12.30;99.90
24146;DHT22;12308;50.948;4.706;2023-03-21T03:44:25;12.10;99.90
24146;DHT22;12308;50.948;4.706;2023-03-21T03:47:11;12.10;99.90
24146;DHT22;12308;50.948;4.706;2023-03-21T03:49:48;12.20;99.90
24146;DHT22;12308;50.948;4.706;2023-03-21T03:52:25;12.30;99.90
24146;DHT22;12308;50.948;4.706;2023-03-21T03:54:52;12.40;99.90
24146;DHT22;12308;50.948;4.706;2023-03-21T03:57:19;12.40;99.90
24146;DHT22;12308;50.948;4.706;2023-03-21T03:59:45;12.40;99.90
24146;DHT22;12308;50.948;4.706;2023-03-21T04:02:12;12.40;99.90
24146;DHT22;12308;50.948;4.706;2023-03-21T04:04:38;12.40;99.90
24146;DHT22;12308;50.948;4.706;2023-03-21T04:07:06;12.40;99.90
24146;DHT22;12308;50.948;4.706;2023-03-21T04:09:32;12.30;99.90
24146;DHT22;12308;50.948;4.706;2023-03-21T04:11:58;12.30;99.90
24146;DHT22;12308;50.948;4.706;2023-03-21T04:14:24;12.30;99.90
24146;DHT22;12308;50.948;4.706;2023-03-21T04:16:50;12.30;99.90
24146;DHT22;12308;50.948;4.706;2023-03-21T04:19:17;12.30;99.90
24146;DHT22;12308;50.948;4.706;2023-03-21T04:21:43;12.40;99.90
24146;DHT22;12308;50.948;4.706;2023-03-21T04:24:10;12.40;99.90
24146;DHT22;12308;50.948;4.706;2023-03-21T04:26:36;12.40;99.90
24146;DHT22;12308;50.948;4.706;2023-03-21T04:29:02;12.40;99.90
24146;DHT22;12308;50.948;4.706;2023-03-21T04:31:29;12.50;99.90
24146;DHT22;12308;50.948;4.706;2023-03-21T04:34:00;12.60;99.90
24146;DHT22;12308;50.948;4.706;2023-03-21T04:36:26;12.50;99.90
24146;DHT22;12308;50.948;4.706;2023-03-21T04:38:56;12.40;99.90
24146;DHT22;12308;50.948;4.706;2023-03-21T04:41:29;12.40;99.90
24146;DHT22;12308;50.948;4.706;2023-03-21T04:43:55;12.40;99.90
24146;DHT22;12308;50.948;4.706;2023-03-21T04:46:21;12.50;99.90
24146;DHT22;12308;50.948;4.706;2023-03-21T04:48:46;12.40;99.90
24146;DHT22;12308;50.948;4.706;2023-03-21T04:51:14;12.40;99.90
24146;DHT22;12308;50.948;4.706;2023-03-21T04:53:40;12.30;99.90
24146;DHT22;12308;50.948;4.706;2023-03-21T04:56:10;12.40;99.90
24146;DHT22;12308;50.948;4.706;2023-03-21T04:58:36;12.50;99.90
24146;DHT22;12308;50.948;4.706;2023-03-21T05:01:02;12.40;99.90
24146;DHT22;12308;50.948;4.706;2023-03-21T05:03:30;12.30;99.90
24146;DHT22;12308;50.948;4.706;2023-03-21T05:05:59;12.40;99.90
24146;DHT22;12308;50.948;4.706;2023-03-21T05:08:25;12.60;99.90
24146;DHT22;12308;50.948;4.706;2023-03-21T05:10:51;12.50;99.90
24146;DHT22;12308;50.948;4.706;2023-03-21T05:13:17;12.40;99.90
24146;DHT22;12308;50.948;4.706;2023-03-21T05:15:42;12.20;99.90
24146;DHT22;12308;50.948;4.706;2023-03-21T05:18:08;12.30;99.90
24146;DHT22;12308;50.948;4.706;2023-03-21T05:20:40;12.40;99.90
24146;DHT22;12308;50.948;4.706;2023-03-21T05:23:09;12.30;99.90
24146;DHT22;12308;50.948;4.706;2023-03-21T05:25:39;12.50;99.90
24146;DHT22;12308;50.948;4.706;2023-03-21T05:28:05;12.50;99.90
24146;DHT22;12308;50.948;4.706;2023-03-21T05:30:32;12.50;99.90
24146;DHT22;12308;50.948;4.706;2023-03-21T05:32:58;12.50;99.90
24146;DHT22;12308;50.948;4.706;2023-03-21T05:35:23;12.60;99.90
24146;DHT22;12308;50.948;4.706;2023-03-21T05:37:49;12.60;99.90
24146;DHT22;12308;50.948;4.706;2023-03-21T05:40:15;12.60;99.90
24146;DHT22;12308;50.948;4.706;2023-03-21T05:42:40;12.70;99.90
24146;DHT22;12308;50.948;4.706;2023-03-21T05:45:06;12.70;99.90
24146;DHT22;12308;50.948;4.706;2023-03-21T05:47:32;12.80;99.90
24146;DHT22;12308;50.948;4.706;2023-03-21T05:49:58;12.70;99.90
24146;DHT22;12308;50.948;4.706;2023-03-21T05:52:23;12.80;99.90
24146;DHT22;12308;50.948;4.706;2023-03-21T05:54:49;12.50;99.90
24146;DHT22;12308;50.948;4.706;2023-03-21T05:57:15;12.50;99.90
24146;DHT22;12308;50.948;4.706;2023-03-21T05:59:43;12.40;99.90
24146;DHT22;12308;50.948;4.706;2023-03-21T06:02:09;12.30;99.90
24146;DHT22;12308;50.948;4.706;2023-03-21T06:04:36;12.30;99.90
24146;DHT22;12308;50.948;4.706;2023-03-21T06:07:01;12.40;99.90
24146;DHT22;12308;50.948;4.706;2023-03-21T06:09:27;12.40;99.90
24146;DHT22;12308;50.948;4.706;2023-03-21T06:11:55;12.40;99.90
24146;DHT22;12308;50.948;4.706;2023-03-21T06:14:22;12.40;99.90
24146;DHT22;12308;50.948;4.706;2023-03-21T06:16:48;12.40;99.90
24146;DHT22;12308;50.948;4.706;2023-03-21T06:19:13;12.40;99.90
24146;DHT22;12308;50.948;4.706;2023-03-21T06:21:39;12.50;99.90
24146;DHT22;12308;50.948;4.706;2023-03-21T06:24:05;12.50;99.90
24146;DHT22;12308;50.948;4.706;2023-03-21T06:26:31;12.50;99.90
24146;DHT22;12308;50.948;4.706;2023-03-21T06:28:56;12.60;99.90
24146;DHT22;12308;50.948;4.706;2023-03-21T06:31:22;12.60;99.90
24146;DHT22;12308;50.948;4.706;2023-03-21T06:33:49;12.60;99.90
24146;DHT22;12308;50.948;4.706;2023-03-21T06:36:16;12.60;99.90
24146;DHT22;12308;50.948;4.706;2023-03-21T06:38:42;12.60;99.90
24146;DHT22;12308;50.948;4.706;2023-03-21T06:41:08;12.60;99.90
24146;DHT22;12308;50.948;4.706;2023-03-21T06:43:35;12.40;99.90
24146;DHT22;12308;50.948;4.706;2023-03-21T06:46:00;12.30;99.90
24146;DHT22;12308;50.948;4.706;2023-03-21T06:48:26;12.20;99.90
24146;DHT22;12308;50.948;4.706;2023-03-21T06:50:53;12.10;99.90
24146;DHT22;12308;50.948;4.706;2023-03-21T06:53:21;12.10;99.90
24146;DHT22;12308;50.948;4.706;2023-03-21T06:55:50;12.10;99.90
24146;DHT22;12308;50.948;4.706;2023-03-21T06:58:16;11.90;99.90
24146;DHT22;12308;50.948;4.706;2023-03-21T07:00:42;11.90;99.90
24146;DHT22;12308;50.948;4.706;2023-03-21T07:03:10;12.00;99.90
24146;DHT22;12308;50.948;4.706;2023-03-21T07:05:36;12.00;99.90
24146;DHT22;12308;50.948;4.706;2023-03-21T07:08:04;12.00;99.90
24146;DHT22;12308;50.948;4.706;2023-03-21T07:10:30;12.00;99.90
24146;DHT22;12308;50.948;4.706;2023-03-21T07:12:57;12.10;99.90
24146;DHT22;12308;50.948;4.706;2023-03-21T07:15:23;12.00;99.90
24146;DHT22;12308;50.948;4.706;2023-03-21T07:17:49;12.10;99.90
24146;DHT22;12308;50.948;4.706;2023-03-21T07:20:14;12.10;99.90
24146;DHT22;12308;50.948;4.706;2023-03-21T07:22:40;12.00;99.90
24146;DHT22;12308;50.948;4.706;2023-03-21T07:25:06;12.20;99.90
24146;DHT22;12308;50.948;4.706;2023-03-21T07:27:32;12.20;99.90
24146;DHT22;12308;50.948;4.706;2023-03-21T07:29:58;12.20;99.90
24146;DHT22;12308;50.948;4.706;2023-03-21T07:32:24;12.20;99.90
24146;DHT22;12308;50.948;4.706;2023-03-21T07:34:54;12.30;99.90
24146;DHT22;12308;50.948;4.706;2023-03-21T07:37:20;12.30;99.90
24146;DHT22;12308;50.948;4.706;2023-03-21T07:39:46;12.30;99.90
24146;DHT22;12308;50.948;4.706;2023-03-21T07:42:12;12.40;99.90
24146;DHT22;12308;50.948;4.706;2023-03-21T07:44:37;12.50;99.90
24146;DHT22;12308;50.948;4.706;2023-03-21T07:47:05;12.60;99.90
24146;DHT22;12308;50.948;4.706;2023-03-21T07:49:31;12.60;99.90
24146;DHT22;12308;50.948;4.706;2023-03-21T07:51:57;12.50;99.90
24146;DHT22;12308;50.948;4.706;2023-03-21T07:54:24;12.50;99.90
24146;DHT22;12308;50.948;4.706;2023-03-21T07:56:49;12.30;99.90
24146;DHT22;12308;50.948;4.706;2023-03-21T07:59:15;12.40;99.90
24146;DHT22;12308;50.948;4.706;2023-03-21T08:01:41;12.60;99.90
24146;DHT22;12308;50.948;4.706;2023-03-21T08:04:06;12.80;99.90
24146;DHT22;12308;50.948;4.706;2023-03-21T08:06:32;12.80;99.90
24146;DHT22;12308;50.948;4.706;2023-03-21T08:08:58;12.80;99.90
24146;DHT22;12308;50.948;4.706;2023-03-21T08:11:24;12.90;99.90
24146;DHT22;12308;50.948;4.706;2023-03-21T08:13:50;13.10;99.90
24146;DHT22;12308;50.948;4.706;2023-03-21T08:16:16;13.10;99.90
24146;DHT22;12308;50.948;4.706;2023-03-21T08:18:42;13.30;99.90
24146;DHT22;12308;50.948;4.706;2023-03-21T08:21:08;13.30;99.90
24146;DHT22;12308;50.948;4.706;2023-03-21T08:23:33;13.30;99.90
24146;DHT22;12308;50.948;4.706;2023-03-21T08:26:00;13.30;99.90
24146;DHT22;12308;50.948;4.706;2023-03-21T08:28:26;13.20;99.90
24146;DHT22;12308;50.948;4.706;2023-03-21T08:30:52;13.20;99.90
24146;DHT22;12308;50.948;4.706;2023-03-21T08:33:18;13.20;99.90
24146;DHT22;12308;50.948;4.706;2023-03-21T08:35:43;13.30;99.90
24146;DHT22;12308;50.948;4.706;2023-03-21T08:38:09;13.30;99.90
24146;DHT22;12308;50.948;4.706;2023-03-21T08:40:35;13.30;99.90
24146;DHT22;12308;50.948;4.706;2023-03-21T08:43:01;13.40;99.90
24146;DHT22;12308;50.948;4.706;2023-03-21T08:45:27;13.50;99.90
24146;DHT22;12308;50.948;4.706;2023-03-21T08:47:53;13.60;99.90
24146;DHT22;12308;50.948;4.706;2023-03-21T08:50:21;13.60;99.90
24146;DHT22;12308;50.948;4.706;2023-03-21T08:52:48;13.60;99.90
24146;DHT22;12308;50.948;4.706;2023-03-21T08:55:15;13.70;99.90
24146;DHT22;12308;50.948;4.706;2023-03-21T08:57:41;13.80;99.90
24146;DHT22;12308;50.948;4.706;2023-03-21T09:00:10;13.70;99.90
24146;DHT22;12308;50.948;4.706;2023-03-21T09:02:42;13.90;99.90
24146;DHT22;12308;50.948;4.706;2023-03-21T09:05:08;13.90;99.90
24146;DHT22;12308;50.948;4.706;2023-03-21T09:07:37;13.80;99.90
24146;DHT22;12308;50.948;4.706;2023-03-21T09:10:03;13.80;99.90
24146;DHT22;12308;50.948;4.706;2023-03-21T09:12:30;13.90;99.90
24146;DHT22;12308;50.948;4.706;2023-03-21T09:14:55;13.90;99.90
24146;DHT22;12308;50.948;4.706;2023-03-21T09:17:21;13.90;99.90
24146;DHT22;12308;50.948;4.706;2023-03-21T09:19:47;14.00;99.90
24146;DHT22;12308;50.948;4.706;2023-03-21T09:22:15;14.00;99.90
24146;DHT22;12308;50.948;4.706;2023-03-21T09:24:43;14.20;99.90
24146;DHT22;12308;50.948;4.706;2023-03-21T09:27:14;14.10;99.90
24146;DHT22;12308;50.948;4.706;2023-03-21T09:29:43;14.40;99.90
24146;DHT22;12308;50.948;4.706;2023-03-21T09:32:10;14.40;99.90
24146;DHT22;12308;50.948;4.706;2023-03-21T09:34:37;14.60;99.90
24146;DHT22;12308;50.948;4.706;2023-03-21T09:37:08;14.70;99.90
24146;DHT22;12308;50.948;4.706;2023-03-21T09:39:40;14.70;99.90
24146;DHT22;12308;50.948;4.706;2023-03-21T09:42:23;15.00;99.90
24146;DHT22;12308;50.948;4.706;2023-03-21T09:47:31;15.00;99.90
24146;DHT22;12308;50.948;4.706;2023-03-21T09:50:17;15.10;99.90
24146;DHT22;12308;50.948;4.706;2023-03-21T09:52:57;15.00;99.90
24146;DHT22;12308;50.948;4.706;2023-03-21T09:55:25;14.90;99.90
24146;DHT22;12308;50.948;4.706;2023-03-21T10:00:37;14.90;99.90
24146;DHT22;12308;50.948;4.706;2023-03-21T10:03:18;14.90;99.90
24146;DHT22;12308;50.948;4.706;2023-03-21T10:05:50;14.70;99.90
24146;DHT22;12308;50.948;4.706;2023-03-21T10:08:23;14.80;99.90
24146;DHT22;12308;50.948;4.706;2023-03-21T10:10:54;14.80;99.90
24146;DHT22;12308;50.948;4.706;2023-03-21T10:13:32;14.70;99.90
24146;DHT22;12308;50.948;4.706;2023-03-21T10:16:29;14.90;99.90
24146;DHT22;12308;50.948;4.706;2023-03-21T10:18:57;15.00;99.90
24146;DHT22;12308;50.948;4.706;2023-03-21T10:21:26;15.20;99.90
24146;DHT22;12308;50.948;4.706;2023-03-21T10:23:55;15.30;99.90
24146;DHT22;12308;50.948;4.706;2023-03-21T10:26:23;15.30;99.90
24146;DHT22;12308;50.948;4.706;2023-03-21T10:28:54;15.30;99.90
24146;DHT22;12308;50.948;4.706;2023-03-21T10:31:25;15.20;99.90
24146;DHT22;12308;50.948;4.706;2023-03-21T10:34:00;15.40;99.90
24146;DHT22;12308;50.948;4.706;2023-03-21T10:36:28;15.70;99.90
24146;DHT22;12308;50.948;4.706;2023-03-21T10:39:05;15.90;99.90
24146;DHT22;12308;50.948;4.706;2023-03-21T10:41:33;16.00;99.90
24146;DHT22;12308;50.948;4.706;2023-03-21T10:44:14;15.90;99.90
24146;DHT22;12308;50.948;4.706;2023-03-21T10:46:52;15.70;99.90
24146;DHT22;12308;50.948;4.706;2023-03-21T10:49:18;15.80;99.90
24146;DHT22;12308;50.948;4.706;2023-03-21T10:51:50;15.80;99.90
24146;DHT22;12308;50.948;4.706;2023-03-21T10:54:21;15.80;99.90
24146;DHT22;12308;50.948;4.706;2023-03-21T10:59:23;15.80;99.90
24146;DHT22;12308;50.948;4.706;2023-03-21T11:01:50;15.70;99.90
24146;DHT22;12308;50.948;4.706;2023-03-21T11:04:19;15.60;99.90
24146;DHT22;12308;50.948;4.706;2023-03-21T11:06:55;15.60;99.90
24146;DHT22;12308;50.948;4.706;2023-03-21T11:09:24;15.60;99.90
24146;DHT22;12308;50.948;4.706;2023-03-21T11:14:43;15.40;99.90
24146;DHT22;12308;50.948;4.706;2023-03-21T11:17:25;15.40;99.90
24146;DHT22;12308;50.948;4.706;2023-03-21T11:19:53;15.70;99.90
24146;DHT22;12308;50.948;4.706;2023-03-21T11:22:24;15.90;99.90
24146;DHT22;12308;50.948;4.706;2023-03-21T11:24:57;16.10;99.90
24146;DHT22;12308;50.948;4.706;2023-03-21T11:27:27;16.00;99.90
24146;DHT22;12308;50.948;4.706;2023-03-21T11:29:55;15.90;99.90
24146;DHT22;12308;50.948;4.706;2023-03-21T11:32:37;16.00;99.90
24146;DHT22;12308;50.948;4.706;2023-03-21T11:35:19;15.80;99.90
24146;DHT22;12308;50.948;4.706;2023-03-21T11:37:50;15.70;99.90
24146;DHT22;12308;50.948;4.706;2023-03-21T11:40:19;15.60;99.90
24146;DHT22;12308;50.948;4.706;2023-03-21T11:42:51;15.50;99.90
24146;DHT22;12308;50.948;4.706;2023-03-21T11:45:20;15.80;99.90
24146;DHT22;12308;50.948;4.706;2023-03-21T11:47:47;16.00;99.90
24146;DHT22;12308;50.948;4.706;2023-03-21T11:50:19;16.00;99.90
24146;DHT22;12308;50.948;4.706;2023-03-21T11:55:30;16.20;99.90
24146;DHT22;12308;50.948;4.706;2023-03-21T11:58:16;16.20;99.90
24146;DHT22;12308;50.948;4.706;2023-03-21T12:01:04;16.00;99.90
24146;DHT22;12308;50.948;4.706;2023-03-21T12:15:07;16.20;99.90
24146;DHT22;12308;50.948;4.706;2023-03-21T12:20:46;16.20;99.90
24146;DHT22;12308;50.948;4.706;2023-03-21T12:23:27;16.10;99.90
24146;DHT22;12308;50.948;4.706;2023-03-21T12:26:07;16.10;99.90
24146;DHT22;12308;50.948;4.706;2023-03-21T12:31:39;15.90;99.90
24146;DHT22;12308;50.948;4.706;2023-03-21T12:34:29;16.00;99.90
24146;DHT22;12308;50.948;4.706;2023-03-21T12:37:10;15.90;99.90
24146;DHT22;12308;50.948;4.706;2023-03-21T12:39:42;15.90;99.90
24146;DHT22;12308;50.948;4.706;2023-03-21T12:45:22;16.20;99.90
24146;DHT22;12308;50.948;4.706;2023-03-21T12:48:10;16.40;99.90
24146;DHT22;12308;50.948;4.706;2023-03-21T12:50:38;16.10;99.90
24146;DHT22;12308;50.948;4.706;2023-03-21T12:56:09;15.90;99.90
24146;DHT22;12308;50.948;4.706;2023-03-21T12:58:44;16.20;99.90
24146;DHT22;12308;50.948;4.706;2023-03-21T13:01:12;16.40;99.90
24146;DHT22;12308;50.948;4.706;2023-03-21T13:06:32;16.20;99.90
24146;DHT22;12308;50.948;4.706;2023-03-21T13:09:09;16.20;99.90
24146;DHT22;12308;50.948;4.706;2023-03-21T13:11:37;16.20;99.90
24146;DHT22;12308;50.948;4.706;2023-03-21T13:14:23;15.90;99.90
24146;DHT22;12308;50.948;4.706;2023-03-21T13:16:53;16.00;99.90
24146;DHT22;12308;50.948;4.706;2023-03-21T13:22:25;16.70;99.90
24146;DHT22;12308;50.948;4.706;2023-03-21T13:25:04;16.70;99.90
24146;DHT22;12308;50.948;4.706;2023-03-21T13:27:34;16.90;99.90
24146;DHT22;12308;50.948;4.706;2023-03-21T13:30:02;17.00;99.90
24146;DHT22;12308;50.948;4.706;2023-03-21T13:32:35;17.00;99.90
24146;DHT22;12308;50.948;4.706;2023-03-21T13:35:13;17.00;99.90
24146;DHT22;12308;50.948;4.706;2023-03-21T13:37:43;17.10;99.90
24146;DHT22;12308;50.948;4.706;2023-03-21T13:40:42;17.10;99.90
24146;DHT22;12308;50.948;4.706;2023-03-21T13:44:04;17.20;99.90
24146;DHT22;12308;50.948;4.706;2023-03-21T13:48:58;16.70;99.90
24146;DHT22;12308;50.948;4.706;2023-03-21T13:59:35;16.40;99.90
24146;DHT22;12308;50.948;4.706;2023-03-21T14:02:32;16.20;99.90
24146;DHT22;12308;50.948;4.706;2023-03-21T14:05:05;16.20;99.90
24146;DHT22;12308;50.948;4.706;2023-03-21T14:07:34;16.10;99.90
24146;DHT22;12308;50.948;4.706;2023-03-21T14:10:04;16.10;99.90
24146;DHT22;12308;50.948;4.706;2023-03-21T14:12:37;16.20;99.90
24146;DHT22;12308;50.948;4.706;2023-03-21T14:15:25;16.10;99.90
24146;DHT22;12308;50.948;4.706;2023-03-21T14:18:00;16.00;99.90
24146;DHT22;12308;50.948;4.706;2023-03-21T14:20:35;16.10;99.90
24146;DHT22;12308;50.948;4.706;2023-03-21T14:23:05;16.00;99.90
24146;DHT22;12308;50.948;4.706;2023-03-21T14:25:38;16.30;99.90
24146;DHT22;12308;50.948;4.706;2023-03-21T14:28:12;16.50;99.90
24146;DHT22;12308;50.948;4.706;2023-03-21T14:30:39;16.80;99.90
24146;DHT22;12308;50.948;4.706;2023-03-21T14:33:19;16.80;99.90
24146;DHT22;12308;50.948;4.706;2023-03-21T14:35:47;16.40;99.90
24146;DHT22;12308;50.948;4.706;2023-03-21T14:38:20;16.60;99.90
24146;DHT22;12308;50.948;4.706;2023-03-21T14:40:48;16.90;99.90
24146;DHT22;12308;50.948;4.706;2023-03-21T14:43:14;16.90;99.90
24146;DHT22;12308;50.948;4.706;2023-03-21T14:45:39;16.70;99.90
24146;DHT22;12308;50.948;4.706;2023-03-21T14:48:12;16.50;99.90
24146;DHT22;12308;50.948;4.706;2023-03-21T14:50:49;16.50;99.90
24146;DHT22;12308;50.948;4.706;2023-03-21T14:53:30;16.50;99.90
24146;DHT22;12308;50.948;4.706;2023-03-21T14:56:06;16.20;99.90
24146;DHT22;12308;50.948;4.706;2023-03-21T14:58:36;16.10;99.90
24146;DHT22;12308;50.948;4.706;2023-03-21T15:01:05;15.90;99.90
24146;DHT22;12308;50.948;4.706;2023-03-21T15:03:33;15.90;99.90
24146;DHT22;12308;50.948;4.706;2023-03-21T15:05:59;15.90;99.90
24146;DHT22;12308;50.948;4.706;2023-03-21T15:08:27;15.90;99.90
24146;DHT22;12308;50.948;4.706;2023-03-21T15:11:12;15.90;99.90
24146;DHT22;12308;50.948;4.706;2023-03-21T15:13:47;15.90;99.90
24146;DHT22;12308;50.948;4.706;2023-03-21T15:16:15;15.80;99.90
24146;DHT22;12308;50.948;4.706;2023-03-21T15:18:41;15.90;99.90
24146;DHT22;12308;50.948;4.706;2023-03-21T15:21:24;16.00;99.90
24146;DHT22;12308;50.948;4.706;2023-03-21T15:23:57;16.00;99.90
24146;DHT22;12308;50.948;4.706;2023-03-21T15:26:24;16.10;99.90
24146;DHT22;12308;50.948;4.706;2023-03-21T15:28:56;16.00;99.90
24146;DHT22;12308;50.948;4.706;2023-03-21T15:31:27;15.70;99.90
24146;DHT22;12308;50.948;4.706;2023-03-21T15:33:53;15.60;99.90
24146;DHT22;12308;50.948;4.706;2023-03-21T15:36:31;15.70;99.90
24146;DHT22;12308;50.948;4.706;2023-03-21T15:39:00;15.70;99.90
24146;DHT22;12308;50.948;4.706;2023-03-21T15:41:29;15.60;99.90
24146;DHT22;12308;50.948;4.706;2023-03-21T15:44:04;15.50;99.90
24146;DHT22;12308;50.948;4.706;2023-03-21T15:46:42;15.40;99.90
24146;DHT22;12308;50.948;4.706;2023-03-21T15:51:38;15.30;99.90
24146;DHT22;12308;50.948;4.706;2023-03-21T15:54:12;15.40;99.90
24146;DHT22;12308;50.948;4.706;2023-03-21T15:56:39;15.40;99.90
24146;DHT22;12308;50.948;4.706;2023-03-21T15:59:14;15.40;99.90
24146;DHT22;12308;50.948;4.706;2023-03-21T16:01:45;15.40;99.90
24146;DHT22;12308;50.948;4.706;2023-03-21T16:04:11;15.50;99.90
24146;DHT22;12308;50.948;4.706;2023-03-21T16:06:41;15.40;99.90
24146;DHT22;12308;50.948;4.706;2023-03-21T16:09:15;15.40;99.90
24146;DHT22;12308;50.948;4.706;2023-03-21T16:11:53;15.40;99.90
24146;DHT22;12308;50.948;4.706;2023-03-21T16:14:20;15.30;99.90
24146;DHT22;12308;50.948;4.706;2023-03-21T16:16:47;15.40;99.90
24146;DHT22;12308;50.948;4.706;2023-03-21T16:19:13;15.30;99.90
24146;DHT22;12308;50.948;4.706;2023-03-21T16:21:39;15.20;99.90
24146;DHT22;12308;50.948;4.706;2023-03-21T16:24:05;15.20;99.90
24146;DHT22;12308;50.948;4.706;2023-03-21T16:26:42;15.20;99.90
24146;DHT22;12308;50.948;4.706;2023-03-21T16:29:12;14.90;99.90
24146;DHT22;12308;50.948;4.706;2023-03-21T16:31:38;14.80;99.90
24146;DHT22;12308;50.948;4.706;2023-03-21T16:34:03;14.80;99.90
24146;DHT22;12308;50.948;4.706;2023-03-21T16:36:32;14.80;99.90
24146;DHT22;12308;50.948;4.706;2023-03-21T16:38:58;14.80;99.90
24146;DHT22;12308;50.948;4.706;2023-03-21T16:41:26;14.80;99.90
24146;DHT22;12308;50.948;4.706;2023-03-21T16:43:52;15.00;99.90
24146;DHT22;12308;50.948;4.706;2023-03-21T16:46:22;15.10;99.90
24146;DHT22;12308;50.948;4.706;2023-03-21T16:48:51;15.10;99.90
24146;DHT22;12308;50.948;4.706;2023-03-21T16:51:27;15.20;99.90
24146;DHT22;12308;50.948;4.706;2023-03-21T16:53:55;15.10;99.90
24146;DHT22;12308;50.948;4.706;2023-03-21T16:56:46;15.00;99.90
24146;DHT22;12308;50.948;4.706;2023-03-21T16:59:13;15.10;99.90
24146;DHT22;12308;50.948;4.706;2023-03-21T17:01:40;15.20;99.90
24146;DHT22;12308;50.948;4.706;2023-03-21T17:04:07;15.30;99.90
24146;DHT22;12308;50.948;4.706;2023-03-21T17:06:40;15.30;99.90
24146;DHT22;12308;50.948;4.706;2023-03-21T17:09:09;15.40;99.90
24146;DHT22;12308;50.948;4.706;2023-03-21T17:11:36;15.30;99.90
24146;DHT22;12308;50.948;4.706;2023-03-21T17:14:06;15.40;99.90
24146;DHT22;12308;50.948;4.706;2023-03-21T17:16:33;15.40;99.90